createdAt,value
2023-04-14T00:00:22.566Z,98350.94
2023-04-14T00:02:50.834Z,98353.38
2023-04-14T00:05:20.420Z,98352.56
2023-04-14T00:07:48.098Z,98348.47
2023-04-14T00:10:15.860Z,98358.88
2023-04-14T00:12:43.460Z,98357.91
2023-04-14T00:15:11.902Z,98354.59
2023-04-14T00:17:39.506Z,98351.63
2023-04-14T00:20:09.751Z,98346.94
2023-04-14T00:22:38.660Z,98339.88
2023-04-14T00:25:07.130Z,98346.78
2023-04-14T00:27:34.740Z,98347.56
2023-04-14T00:30:02.273Z,98344.31
2023-04-14T00:32:29.905Z,98353.28
2023-04-14T00:35:00.000Z,98354.50
2023-04-14T00:37:27.681Z,98353.69
2023-04-14T00:39:56.575Z,98352.03
2023-04-14T00:42:25.061Z,98353.91
2023-04-14T00:44:52.658Z,98364.19
2023-04-14T00:47:22.881Z,98358.91
2023-04-14T00:49:50.974Z,98358.53
2023-04-14T00:52:18.638Z,98351.44
2023-04-14T00:54:46.174Z,98351.22
2023-04-14T00:57:15.441Z,98354.06
2023-04-14T00:59:43.155Z,98352.47
2023-04-14T01:02:11.106Z,98343.44
2023-04-14T01:04:52.933Z,98342.56
2023-04-14T01:07:21.971Z,98353.00
2023-04-14T01:09:49.708Z,98341.63
2023-04-14T01:12:29.661Z,98333.22
2023-04-14T01:15:03.452Z,98325.44
2023-04-14T01:17:36.092Z,98332.25
2023-04-14T01:20:13.584Z,98330.41
2023-04-14T01:22:46.736Z,98340.31
2023-04-14T01:25:46.038Z,98337.00
2023-04-14T01:28:28.307Z,98337.69
2023-04-14T01:31:08.943Z,98344.72
2023-04-14T01:33:39.532Z,98341.25
2023-04-14T01:36:09.948Z,98345.59
2023-04-14T01:38:38.790Z,98352.06
2023-04-14T01:41:09.316Z,98345.38
2023-04-14T01:43:39.633Z,98351.75
2023-04-14T01:46:13.473Z,98356.13
2023-04-14T01:48:41.725Z,98349.94
2023-04-14T01:51:09.889Z,98349.19
2023-04-14T01:53:39.598Z,98344.13
2023-04-14T01:58:37.429Z,98350.16
2023-04-14T02:01:06.276Z,98354.50
2023-04-14T02:03:36.337Z,98345.97
2023-04-14T02:06:05.370Z,98357.97
2023-04-14T02:08:33.861Z,98350.84
2023-04-14T02:11:01.704Z,98356.78
2023-04-14T02:13:29.954Z,98356.81
2023-04-14T02:15:58.950Z,98356.94
2023-04-14T02:18:27.025Z,98364.84
2023-04-14T02:20:57.037Z,98368.81
2023-04-14T02:23:24.682Z,98368.06
2023-04-14T02:25:56.090Z,98372.81
2023-04-14T02:28:27.386Z,98379.16
2023-04-14T02:30:57.524Z,98376.81
2023-04-14T02:33:30.629Z,98386.16
2023-04-14T02:36:03.129Z,98388.63
2023-04-14T02:38:34.836Z,98389.47
2023-04-14T02:41:08.643Z,98388.72
2023-04-14T02:43:42.808Z,98395.56
2023-04-14T02:46:10.664Z,98392.53
2023-04-14T02:48:39.327Z,98389.88
2023-04-14T02:51:09.572Z,98398.25
2023-04-14T02:53:37.291Z,98395.81
2023-04-14T02:56:05.476Z,98394.47
2023-04-14T02:58:33.261Z,98396.97
2023-04-14T03:01:01.842Z,98407.19
2023-04-14T03:03:30.330Z,98397.69
2023-04-14T03:05:58.193Z,98400.16
2023-04-14T03:08:28.181Z,98407.19
2023-04-14T03:10:56.072Z,98402.84
2023-04-14T03:13:27.614Z,98405.19
2023-04-14T03:15:55.967Z,98397.41
2023-04-14T03:18:23.728Z,98395.97
2023-04-14T03:20:53.027Z,98397.50
2023-04-14T03:23:21.905Z,98392.22
2023-04-14T03:25:51.500Z,98393.94
2023-04-14T03:28:22.783Z,98395.03
2023-04-14T03:30:52.590Z,98398.00
2023-04-14T03:33:24.063Z,98395.00
2023-04-14T03:35:54.150Z,98392.38
2023-04-14T03:38:23.671Z,98397.59
2023-04-14T03:40:53.515Z,98388.16
2023-04-14T03:43:23.589Z,98388.34
2023-04-14T03:45:51.973Z,98387.59
2023-04-14T03:48:21.331Z,98383.97
2023-04-14T03:50:51.560Z,98385.06
2023-04-14T03:53:20.437Z,98391.03
2023-04-14T03:55:49.322Z,98392.00
2023-04-14T03:58:18.561Z,98382.72
2023-04-14T04:00:46.414Z,98387.16
2023-04-14T04:03:15.250Z,98380.94
2023-04-14T04:05:44.234Z,98387.84
2023-04-14T04:08:12.465Z,98382.97
2023-04-14T04:10:40.607Z,98380.88
2023-04-14T04:13:11.453Z,98394.69
2023-04-14T04:15:42.484Z,98401.00
2023-04-14T04:18:11.573Z,98401.22
2023-04-14T04:20:39.555Z,98403.28
2023-04-14T04:23:08.407Z,98404.28
2023-04-14T04:25:37.445Z,98406.19
2023-04-14T04:28:05.375Z,98405.03
2023-04-14T04:30:33.579Z,98414.44
2023-04-14T04:33:04.696Z,98415.34
2023-04-14T04:35:32.801Z,98422.84
2023-04-14T04:38:01.872Z,98415.78
2023-04-14T04:40:30.928Z,98424.78
2023-04-14T04:42:58.486Z,98420.47
2023-04-14T04:45:45.453Z,98428.28
2023-04-14T04:48:14.333Z,98427.19
2023-04-14T04:50:42.583Z,98427.91
2023-04-14T04:53:12.079Z,98428.84
2023-04-14T04:55:39.669Z,98428.84
2023-04-14T04:58:07.222Z,98429.22
2023-04-14T05:00:35.197Z,98432.00
2023-04-14T05:03:02.960Z,98431.78
2023-04-14T05:05:36.463Z,98435.69
2023-04-14T05:08:04.101Z,98432.91
2023-04-14T05:10:35.266Z,98432.72
2023-04-14T05:13:02.883Z,98434.47
2023-04-14T05:15:30.512Z,98436.00
2023-04-14T05:17:59.133Z,98436.09
2023-04-14T05:20:26.814Z,98427.34
2023-04-14T05:22:56.220Z,98431.91
2023-04-14T05:25:23.786Z,98438.56
2023-04-14T05:27:51.374Z,98440.75
2023-04-14T05:30:19.000Z,98438.88
2023-04-14T05:32:46.696Z,98440.41
2023-04-14T05:35:14.338Z,98448.25
2023-04-14T05:37:42.071Z,98447.81
2023-04-14T05:40:12.287Z,98448.72
2023-04-14T05:42:41.819Z,98452.97
2023-04-14T05:45:10.818Z,98449.44
2023-04-14T05:47:39.614Z,98455.53
2023-04-14T05:50:08.799Z,98453.75
2023-04-14T05:52:36.500Z,98456.00
2023-04-14T05:55:04.247Z,98458.69
2023-04-14T05:57:33.373Z,98456.47
2023-04-14T06:00:00.993Z,98468.19
2023-04-14T06:02:28.779Z,98450.78
2023-04-14T06:04:57.358Z,98455.06
2023-04-14T06:07:25.268Z,98450.00
2023-04-14T06:09:52.836Z,98448.19
2023-04-14T06:12:20.916Z,98445.69
2023-04-14T06:14:49.901Z,98447.34
2023-04-14T06:17:17.666Z,98449.47
2023-04-14T06:19:46.895Z,98454.88
2023-04-14T06:22:19.312Z,98433.59
2023-04-14T06:24:47.070Z,98443.59
2023-04-14T06:27:15.203Z,98439.13
2023-04-14T06:29:42.857Z,98439.75
2023-04-14T06:32:11.949Z,98431.13
2023-04-14T06:34:39.581Z,98434.69
2023-04-14T06:37:07.220Z,98430.28
2023-04-14T06:39:34.889Z,98437.25
2023-04-14T06:42:02.799Z,98432.94
2023-04-14T06:44:30.772Z,98428.13
2023-04-14T06:47:00.315Z,98439.47
2023-04-14T06:49:29.435Z,98432.28
2023-04-14T06:51:57.244Z,98436.09
2023-04-14T06:54:25.068Z,98442.97
2023-04-14T06:56:52.688Z,98431.09
2023-04-14T06:59:23.145Z,98431.09
2023-04-14T07:01:51.080Z,98434.16
2023-04-14T07:04:19.372Z,98435.09
2023-04-14T07:06:48.719Z,98434.00
2023-04-14T07:09:16.819Z,98427.06
2023-04-14T07:11:46.248Z,98429.97
2023-04-14T07:14:14.363Z,98433.81
2023-04-14T07:16:42.278Z,98438.28
2023-04-14T07:19:10.119Z,98434.75
2023-04-14T07:21:38.156Z,98440.16
2023-04-14T07:24:09.589Z,98446.06
2023-04-14T07:26:37.626Z,98443.53
2023-04-14T07:29:06.052Z,98442.19
2023-04-14T07:31:35.707Z,98445.53
2023-04-14T07:34:03.419Z,98450.53
2023-04-14T07:36:31.748Z,98436.13
2023-04-14T07:38:59.583Z,98436.13
2023-04-14T07:41:28.865Z,98439.53
2023-04-14T07:43:59.279Z,98443.06
2023-04-14T07:46:27.654Z,98446.25
2023-04-14T07:48:55.724Z,98438.44
2023-04-14T07:51:23.295Z,98436.16
2023-04-14T07:53:53.015Z,98438.72
2023-04-14T07:56:20.581Z,98429.44
2023-04-14T07:58:49.768Z,98433.13
2023-04-14T08:01:18.024Z,98432.56
2023-04-14T08:03:46.257Z,98434.69
2023-04-14T08:06:14.064Z,98435.59
2023-04-14T08:08:42.839Z,98433.97
2023-04-14T08:11:12.369Z,98438.56
2023-04-14T08:13:40.389Z,98435.09
2023-04-14T08:16:09.527Z,98430.16
2023-04-14T08:18:37.977Z,98427.78
2023-04-14T08:21:05.823Z,98421.13
2023-04-14T08:23:33.601Z,98425.59
2023-04-14T08:26:01.282Z,98425.06
2023-04-14T08:28:29.151Z,98422.97
2023-04-14T08:30:57.536Z,98425.59
2023-04-14T08:33:26.529Z,98416.91
2023-04-14T08:35:58.422Z,98420.84
2023-04-14T08:38:27.982Z,98424.03
2023-04-14T08:40:58.282Z,98412.88
2023-04-14T08:43:26.053Z,98411.47
2023-04-14T08:45:54.667Z,98425.53
2023-04-14T08:48:25.504Z,98418.91
2023-04-14T08:51:02.327Z,98417.81
2023-04-14T08:53:31.096Z,98419.84
2023-04-14T08:56:01.601Z,98415.88
2023-04-14T08:58:29.500Z,98415.19
2023-04-14T09:00:57.287Z,98410.25
2023-04-14T09:03:25.510Z,98417.47
2023-04-14T09:05:54.843Z,98421.38
2023-04-14T09:08:22.625Z,98407.56
2023-04-14T09:10:51.375Z,98418.41
2023-04-14T09:13:22.953Z,98418.31
2023-04-14T09:15:50.918Z,98415.28
2023-04-14T09:18:18.532Z,98404.31
2023-04-14T09:20:47.909Z,98404.09
2023-04-14T09:23:37.975Z,98402.16
2023-04-14T09:26:09.148Z,98404.72
2023-04-14T09:28:36.983Z,98406.28
2023-04-14T09:31:05.047Z,98391.81
2023-04-14T09:33:34.056Z,98398.75
2023-04-14T09:36:01.724Z,98394.81
2023-04-14T09:38:33.832Z,98396.69
2023-04-14T09:41:03.897Z,98384.75
2023-04-14T09:43:31.760Z,98391.97
2023-04-14T09:46:05.791Z,98390.00
2023-04-14T09:48:34.750Z,98388.56
2023-04-14T09:51:05.711Z,98395.75
2023-04-14T09:53:34.665Z,98383.03
2023-04-14T09:56:05.225Z,98378.84
2023-04-14T09:58:34.643Z,98386.91
2023-04-14T10:01:04.604Z,98382.22
2023-04-14T10:03:37.940Z,98383.63
2023-04-14T10:06:09.789Z,98384.97
2023-04-14T10:08:42.811Z,98377.78
2023-04-14T10:11:20.257Z,98377.13
2023-04-14T10:13:48.835Z,98366.41
2023-04-14T10:16:16.866Z,98369.66
2023-04-14T10:18:44.718Z,98363.09
2023-04-14T10:21:12.587Z,98355.81
2023-04-14T10:23:41.298Z,98346.53
2023-04-14T10:26:10.371Z,98349.25
2023-04-14T10:28:42.052Z,98349.13
2023-04-14T10:31:14.175Z,98351.03
2023-04-14T10:33:42.175Z,98349.66
2023-04-14T10:36:10.463Z,98339.41
2023-04-14T10:38:42.201Z,98349.28
2023-04-14T10:41:10.623Z,98355.78
2023-04-14T10:43:40.341Z,98349.25
2023-04-14T10:46:09.723Z,98345.28
2023-04-14T10:48:39.680Z,98343.31
2023-04-14T10:51:08.987Z,98335.47
2023-04-14T10:53:40.857Z,98332.66
2023-04-14T10:56:08.487Z,98332.50
2023-04-14T10:58:37.652Z,98330.50
2023-04-14T11:01:26.872Z,98326.97
2023-04-14T11:03:55.790Z,98329.53
2023-04-14T11:06:52.305Z,98336.97
2023-04-14T11:09:24.732Z,98327.63
2023-04-14T11:11:52.766Z,98326.50
2023-04-14T11:14:26.920Z,98295.53
2023-04-14T11:17:03.818Z,98316.41
2023-04-14T11:19:33.019Z,98317.44
2023-04-14T11:22:00.583Z,98310.34
2023-04-14T11:24:29.603Z,98303.44
2023-04-14T11:26:57.742Z,98306.91
2023-04-14T11:29:25.411Z,98313.66
2023-04-14T11:32:05.347Z,98313.81
2023-04-14T11:34:33.364Z,98301.94
2023-04-14T11:37:03.062Z,98308.53
2023-04-14T11:39:30.839Z,98279.84
2023-04-14T11:42:00.206Z,98297.34
2023-04-14T11:44:28.110Z,98286.97
2023-04-14T11:46:55.703Z,98291.22
2023-04-14T11:49:35.989Z,98297.28
2023-04-14T11:52:08.168Z,98281.34
2023-04-14T11:54:37.091Z,98277.78
2023-04-14T11:57:09.931Z,98284.47
2023-04-14T11:59:42.605Z,98274.88
2023-04-14T12:02:16.955Z,98275.84
2023-04-14T12:04:46.900Z,98266.75
2023-04-14T12:07:16.911Z,98264.38
2023-04-14T12:09:48.889Z,98259.94
2023-04-14T12:12:17.910Z,98249.66
2023-04-14T12:14:46.865Z,98257.84
2023-04-14T12:17:15.322Z,98258.63
2023-04-14T12:19:43.304Z,98264.16
2023-04-14T12:22:12.618Z,98254.44
2023-04-14T12:24:41.787Z,98259.09
2023-04-14T12:27:10.402Z,98251.91
2023-04-14T12:29:38.130Z,98252.13
2023-04-14T12:32:11.483Z,98248.34
2023-04-14T12:34:39.349Z,98250.91
2023-04-14T12:37:10.650Z,98235.22
2023-04-14T12:39:52.943Z,98240.19
2023-04-14T12:42:20.718Z,98236.94
2023-04-14T12:44:58.944Z,98235.28
2023-04-14T12:47:30.869Z,98230.59
2023-04-14T12:49:59.437Z,98231.25
2023-04-14T12:52:34.578Z,98217.44
2023-04-14T12:55:04.791Z,98216.84
2023-04-14T12:57:33.518Z,98215.75
2023-04-14T13:00:02.176Z,98208.19
2023-04-14T13:02:30.453Z,98207.94
2023-04-14T13:04:58.935Z,98203.72
2023-04-14T13:07:26.594Z,98202.88
2023-04-14T13:09:54.226Z,98200.53
2023-04-14T13:12:23.189Z,98196.09
2023-04-14T13:14:50.934Z,98191.47
2023-04-14T13:17:18.576Z,98195.63
2023-04-14T13:19:46.565Z,98180.28
2023-04-14T13:22:14.924Z,98187.31
2023-04-14T13:24:42.513Z,98184.16
2023-04-14T13:27:11.568Z,98186.59
2023-04-14T13:29:42.207Z,98175.47
2023-04-14T13:32:10.859Z,98179.56
2023-04-14T13:34:38.880Z,98179.19
2023-04-14T13:37:06.782Z,98170.38
2023-04-14T13:39:34.358Z,98163.84
2023-04-14T13:42:02.014Z,98164.09
2023-04-14T13:44:30.617Z,98160.56
2023-04-14T13:46:59.609Z,98157.06
2023-04-14T13:49:27.272Z,98155.97
2023-04-14T13:51:54.927Z,98157.44
2023-04-14T13:54:22.653Z,98151.63
2023-04-14T13:56:51.544Z,98153.03
2023-04-14T13:59:19.209Z,98144.53
2023-04-14T14:01:46.988Z,98151.50
2023-04-14T14:04:16.161Z,98150.03
2023-04-14T14:06:43.849Z,98149.41
2023-04-14T14:09:11.442Z,98144.81
2023-04-14T14:11:42.023Z,98145.66
2023-04-14T14:14:09.613Z,98153.00
2023-04-14T14:16:37.584Z,98136.84
2023-04-14T14:19:07.257Z,98138.69
2023-04-14T14:21:36.695Z,98136.47
2023-04-14T14:24:04.651Z,98130.00
2023-04-14T14:26:32.577Z,98137.97
2023-04-14T14:29:00.258Z,98126.16
2023-04-14T14:31:28.032Z,98122.94
2023-04-14T14:33:55.965Z,98123.97
2023-04-14T14:36:23.606Z,98119.50
2023-04-14T14:38:52.555Z,98118.06
2023-04-14T14:41:20.692Z,98116.47
2023-04-14T14:43:48.345Z,98117.03
2023-04-14T14:46:17.030Z,98119.13
2023-04-14T14:48:45.120Z,98113.22
2023-04-14T14:51:12.966Z,98109.53
2023-04-14T14:53:40.789Z,98106.03
2023-04-14T14:56:10.386Z,98107.63
2023-04-14T14:58:38.495Z,98106.97
2023-04-14T15:01:07.129Z,98108.09
2023-04-14T15:03:35.411Z,98106.31
2023-04-14T15:06:03.623Z,98107.84
2023-04-14T15:08:31.998Z,98104.72
2023-04-14T15:10:59.997Z,98099.03
2023-04-14T15:13:30.241Z,98106.78
2023-04-14T15:15:58.620Z,98099.63
2023-04-14T15:18:26.608Z,98101.25
2023-04-14T15:20:54.842Z,98100.41
2023-04-14T15:23:22.623Z,98095.19
2023-04-14T15:25:50.548Z,98101.19
2023-04-14T15:28:18.494Z,98106.34
2023-04-14T15:30:47.573Z,98103.41
2023-04-14T15:33:15.346Z,98100.38
2023-04-14T15:35:43.248Z,98098.94
2023-04-14T15:38:11.237Z,98094.84
2023-04-14T15:40:39.623Z,98095.34
2023-04-14T15:43:07.868Z,98099.06
2023-04-14T15:45:35.479Z,98092.44
2023-04-14T15:48:04.939Z,98094.72
2023-04-14T15:50:32.557Z,98099.63
2023-04-14T15:53:00.682Z,98091.84
2023-04-14T15:55:28.435Z,98100.03
2023-04-14T15:57:56.394Z,98105.97
2023-04-14T16:00:24.318Z,98104.28
2023-04-14T16:02:52.364Z,98108.50
2023-04-14T16:05:21.538Z,98104.03
2023-04-14T16:07:49.220Z,98099.22
2023-04-14T16:10:16.842Z,98100.78
2023-04-14T16:12:44.477Z,98106.69
2023-04-14T16:15:12.392Z,98100.16
2023-04-14T16:17:40.013Z,98103.69
2023-04-14T16:20:08.198Z,98108.88
2023-04-14T16:22:37.165Z,98105.47
2023-04-14T16:25:05.754Z,98113.94
2023-04-14T16:27:33.588Z,98109.09
2023-04-14T16:30:01.656Z,98108.63
2023-04-14T16:32:29.618Z,98110.44
2023-04-14T16:34:57.792Z,98106.31
2023-04-14T16:37:26.583Z,98103.91
2023-04-14T16:39:56.441Z,98099.03
2023-04-14T16:42:25.073Z,98108.09
2023-04-14T16:44:52.843Z,98110.72
2023-04-14T16:47:21.786Z,98109.09
2023-04-14T16:49:51.519Z,98107.06
2023-04-14T16:52:19.204Z,98119.13
2023-04-14T16:54:46.847Z,98111.59
2023-04-14T16:57:16.495Z,98107.56
2023-04-14T16:59:46.069Z,98100.91
2023-04-14T17:02:13.879Z,98105.13
2023-04-14T17:04:41.681Z,98107.16
2023-04-14T17:07:09.299Z,98101.44
2023-04-14T17:09:36.918Z,98108.13
2023-04-14T17:12:04.608Z,98105.47
2023-04-14T17:14:34.113Z,98102.88
2023-04-14T17:17:02.763Z,98100.19
2023-04-14T17:19:30.487Z,98095.63
2023-04-14T17:21:58.157Z,98103.78
2023-04-14T17:24:26.625Z,98102.59
2023-04-14T17:26:55.595Z,98101.88
2023-04-14T17:29:23.151Z,98107.56
2023-04-14T17:31:52.183Z,98109.38
2023-04-14T17:34:20.576Z,98104.88
2023-04-14T17:36:49.749Z,98103.28
2023-04-14T17:39:20.278Z,98105.88
2023-04-14T17:41:47.946Z,98108.53
2023-04-14T17:44:15.526Z,98113.88
2023-04-14T17:46:45.756Z,98113.25
2023-04-14T17:49:14.883Z,98109.56
2023-04-14T17:51:42.576Z,98107.47
2023-04-14T17:54:10.152Z,98104.06
2023-04-14T17:56:37.740Z,98110.66
2023-04-14T17:59:05.648Z,98102.09
2023-04-14T18:01:33.388Z,98104.31
2023-04-14T18:04:01.223Z,98103.59
2023-04-14T18:06:33.398Z,98109.28
2023-04-14T18:09:01.273Z,98109.28
2023-04-14T18:11:29.279Z,98111.94
2023-04-14T18:13:58.037Z,98109.38
2023-04-14T18:16:26.312Z,98110.75
2023-04-14T18:18:54.931Z,98116.53
2023-04-14T18:21:22.849Z,98115.63
2023-04-14T18:28:53.358Z,98110.81
2023-04-14T18:31:21.258Z,98109.47
2023-04-14T18:33:48.897Z,98111.56
2023-04-14T18:36:17.777Z,98110.69
2023-04-14T18:38:45.534Z,98122.50
2023-04-14T18:41:14.796Z,98114.63
2023-04-14T18:43:42.734Z,98114.44
2023-04-14T18:46:10.318Z,98112.66
2023-04-14T18:48:37.942Z,98115.78
2023-04-14T18:51:08.125Z,98108.06
2023-04-14T18:53:35.964Z,98123.44
2023-04-14T18:56:03.720Z,98119.09
2023-04-14T18:58:32.900Z,98127.31
2023-04-14T19:01:00.494Z,98124.22
2023-04-14T19:03:28.394Z,98129.88
2023-04-14T19:05:56.561Z,98135.91
2023-04-14T19:08:24.222Z,98136.94
2023-04-14T19:10:52.497Z,98136.19
2023-04-14T19:13:20.173Z,98139.38
2023-04-14T19:15:49.228Z,98141.16
2023-04-14T19:18:17.725Z,98134.00
2023-04-14T19:20:47.372Z,98135.03
2023-04-14T19:23:14.932Z,98142.28
2023-04-14T19:25:42.604Z,98141.25
2023-04-14T19:28:16.435Z,98157.81
2023-04-14T19:30:45.757Z,98150.09
2023-04-14T19:33:15.440Z,98151.25
2023-04-14T19:35:44.192Z,98156.63
2023-04-14T19:38:11.966Z,98154.44
2023-04-14T19:40:39.704Z,98158.06
2023-04-14T19:43:07.298Z,98153.72
2023-04-14T19:45:35.028Z,98163.69
2023-04-14T19:48:16.107Z,98164.22
2023-04-14T19:50:52.083Z,98153.81
2023-04-14T19:53:20.537Z,98162.97
2023-04-14T19:55:51.441Z,98156.44
2023-04-14T19:58:21.358Z,98161.88
2023-04-14T20:00:50.884Z,98158.41
2023-04-14T20:03:19.232Z,98156.44
2023-04-14T20:05:50.627Z,98152.09
2023-04-14T20:08:20.312Z,98152.19
2023-04-14T20:10:51.088Z,98156.25
2023-04-14T20:13:19.884Z,98154.78
2023-04-14T20:15:49.090Z,98156.25
2023-04-14T20:18:18.207Z,98156.03
2023-04-14T20:20:45.964Z,98156.53
2023-04-14T20:23:13.616Z,98150.84
2023-04-14T20:25:44.073Z,98148.41
2023-04-14T20:28:11.824Z,98151.03
2023-04-14T20:30:39.450Z,98149.69
2023-04-14T20:33:07.069Z,98151.13
2023-04-14T20:35:36.561Z,98152.97
2023-04-14T20:38:04.339Z,98147.47
2023-04-14T20:40:32.564Z,98154.84
2023-04-14T20:43:01.527Z,98147.03
2023-04-14T20:45:29.316Z,98143.91
2023-04-14T20:47:57.137Z,98152.81
2023-04-14T20:50:25.466Z,98145.84
2023-04-14T20:52:53.707Z,98146.19
2023-04-14T20:55:22.092Z,98149.50
2023-04-14T20:57:50.040Z,98148.91
2023-04-14T21:00:19.005Z,98150.50
2023-04-14T21:02:47.354Z,98152.03
2023-04-14T21:05:17.553Z,98152.19
2023-04-14T21:07:45.915Z,98152.97
2023-04-14T21:10:15.256Z,98149.16
2023-04-14T21:15:15.932Z,98153.38
2023-04-14T21:15:53.462Z,98153.47
2023-04-14T21:18:20.388Z,98156.59
2023-04-14T21:20:48.096Z,98151.75
2023-04-14T21:23:16.128Z,98157.09
2023-04-14T21:25:43.971Z,98156.00
2023-04-14T21:28:11.591Z,98157.09
2023-04-14T21:30:40.820Z,98156.28
2023-04-14T21:33:08.917Z,98163.56
2023-04-14T21:35:37.588Z,98161.00
2023-04-14T21:38:05.534Z,98162.88
2023-04-14T21:40:34.144Z,98160.56
2023-04-14T21:43:02.157Z,98162.72
2023-04-14T21:45:29.892Z,98162.47
2023-04-14T21:47:59.368Z,98165.81
2023-04-14T21:50:27.011Z,98166.28
2023-04-14T21:52:54.771Z,98160.25
2023-04-14T21:55:22.561Z,98154.47
2023-04-14T21:57:52.035Z,98157.47
2023-04-14T22:00:20.288Z,98150.22
2023-04-14T22:02:48.693Z,98159.31
2023-04-14T22:05:18.310Z,98159.16
2023-04-14T22:07:46.357Z,98162.25
2023-04-14T22:10:14.690Z,98159.53
2023-04-14T22:12:44.675Z,98153.69
2023-04-14T22:15:14.461Z,98163.72
2023-04-14T22:17:43.666Z,98159.25
2023-04-14T22:20:15.344Z,98153.69
2023-04-14T22:22:44.773Z,98148.75
2023-04-14T22:25:12.515Z,98154.84
2023-04-14T22:27:40.205Z,98160.16
2023-04-14T22:30:09.961Z,98166.81
2023-04-14T22:32:37.687Z,98154.69
2023-04-14T22:35:06.304Z,98165.50
2023-04-14T22:37:34.513Z,98159.00
2023-04-14T22:40:03.648Z,98151.91
2023-04-14T22:42:32.025Z,98162.59
2023-04-14T22:45:01.146Z,98174.94
2023-04-14T22:47:28.911Z,98170.63
2023-04-14T22:49:56.727Z,98179.34
2023-04-14T22:52:24.497Z,98173.69
2023-04-14T22:54:52.235Z,98169.28
2023-04-14T22:57:21.625Z,98175.53
2023-04-14T22:59:49.475Z,98179.00
2023-04-14T23:02:17.225Z,98186.00
2023-04-14T23:04:45.159Z,98177.66
2023-04-14T23:07:13.566Z,98180.53
2023-04-14T23:09:41.296Z,98186.44
2023-04-14T23:12:09.767Z,98193.31
2023-04-14T23:14:38.852Z,98182.88
2023-04-14T23:17:06.702Z,98179.34
2023-04-14T23:19:35.716Z,98177.78
2023-04-14T23:22:04.465Z,98179.91
2023-04-14T23:24:32.425Z,98179.06
2023-04-14T23:27:00.452Z,98182.59
2023-04-14T23:29:28.420Z,98181.25
2023-04-14T23:31:57.578Z,98182.88
2023-04-14T23:34:25.495Z,98187.34
2023-04-14T23:36:53.458Z,98166.16
2023-04-14T23:39:22.231Z,98189.38
2023-04-14T23:41:50.016Z,98182.78
2023-04-14T23:44:18.031Z,98182.22
2023-04-14T23:46:46.106Z,98182.28
2023-04-14T23:49:23.483Z,98180.50
2023-04-14T23:51:53.179Z,98172.44
2023-04-14T23:54:21.017Z,98170.81
2023-04-14T23:56:48.939Z,98170.91
2023-04-14T23:59:17.267Z,98177.47
